sensor_id;sensor_type;location;lat;lon;timestamp;temperature;humidity
13684;DHT22;6914;53.552;9.908;2023-03-31T00:02:13;10.30;99.90
13684;DHT22;6914;53.552;9.908;2023-03-31T00:04:40;10.30;99.90
13684;DHT22;6914;53.552;9.908;2023-03-31T00:07:12;9.70;99.90
13684;DHT22;6914;53.552;9.908;2023-03-31T00:09:40;8.80;99.90
13684;DHT22;6914;53.552;9.908;2023-03-31T00:12:10;10.50;99.90
13684;DHT22;6914;53.552;9.908;2023-03-31T00:14:38;9.10;99.90
13684;DHT22;6914;53.552;9.908;2023-03-31T00:17:05;10.20;99.90
13684;DHT22;6914;53.552;9.908;2023-03-31T00:19:31;10.00;99.90
13684;DHT22;6914;53.552;9.908;2023-03-31T00:21:58;10.20;99.90
13684;DHT22;6914;53.552;9.908;2023-03-31T00:24:27;10.20;99.90
13684;DHT22;6914;53.552;9.908;2023-03-31T00:26:59;10.20;99.90
13684;DHT22;6914;53.552;9.908;2023-03-31T00:29:26;10.10;99.90
13684;DHT22;6914;53.552;9.908;2023-03-31T00:31:53;10.20;99.90
13684;DHT22;6914;53.552;9.908;2023-03-31T00:34:21;10.10;99.90
13684;DHT22;6914;53.552;9.908;2023-03-31T00:36:49;10.10;99.90
13684;DHT22;6914;53.552;9.908;2023-03-31T00:39:21;10.10;99.90
13684;DHT22;6914;53.552;9.908;2023-03-31T00:41:50;10.10;99.90
13684;DHT22;6914;53.552;9.908;2023-03-31T00:44:21;10.10;99.90
13684;DHT22;6914;53.552;9.908;2023-03-31T00:46:51;10.00;99.90
13684;DHT22;6914;53.552;9.908;2023-03-31T00:49:24;10.10;99.90
13684;DHT22;6914;53.552;9.908;2023-03-31T00:51:55;10.00;99.90
13684;DHT22;6914;53.552;9.908;2023-03-31T00:54:24;10.00;99.90
13684;DHT22;6914;53.552;9.908;2023-03-31T00:56:53;10.00;99.90
13684;DHT22;6914;53.552;9.908;2023-03-31T00:59:27;10.10;99.90
13684;DHT22;6914;53.552;9.908;2023-03-31T01:01:56;10.00;99.90
13684;DHT22;6914;53.552;9.908;2023-03-31T01:04:30;10.00;99.90
13684;DHT22;6914;53.552;9.908;2023-03-31T01:07:02;10.00;99.90
13684;DHT22;6914;53.552;9.908;2023-03-31T01:09:30;10.00;99.90
13684;DHT22;6914;53.552;9.908;2023-03-31T01:11:59;10.30;99.90
13684;DHT22;6914;53.552;9.908;2023-03-31T01:14:28;10.10;99.90
13684;DHT22;6914;53.552;9.908;2023-03-31T01:16:56;10.10;99.90
13684;DHT22;6914;53.552;9.908;2023-03-31T01:19:31;10.20;99.90
13684;DHT22;6914;53.552;9.908;2023-03-31T01:25:36;10.00;99.90
13684;DHT22;6914;53.552;9.908;2023-03-31T01:28:19;10.20;99.90
13684;DHT22;6914;53.552;9.908;2023-03-31T01:31:19;10.10;99.90
13684;DHT22;6914;53.552;9.908;2023-03-31T01:40:23;10.20;99.90
13684;DHT22;6914;53.552;9.908;2023-03-31T01:42:56;10.20;99.90
13684;DHT22;6914;53.552;9.908;2023-03-31T01:45:31;10.20;99.90
13684;DHT22;6914;53.552;9.908;2023-03-31T01:48:06;10.30;99.90
13684;DHT22;6914;53.552;9.908;2023-03-31T01:50:41;10.10;99.90
13684;DHT22;6914;53.552;9.908;2023-03-31T01:53:15;10.10;99.90
13684;DHT22;6914;53.552;9.908;2023-03-31T01:55:50;10.10;99.90
13684;DHT22;6914;53.552;9.908;2023-03-31T01:58:22;11.10;99.90
13684;DHT22;6914;53.552;9.908;2023-03-31T02:00:55;10.00;99.90
13684;DHT22;6914;53.552;9.908;2023-03-31T02:03:29;10.00;99.90
13684;DHT22;6914;53.552;9.908;2023-03-31T02:06:04;10.10;99.90
13684;DHT22;6914;53.552;9.908;2023-03-31T02:08:37;10.10;99.90
13684;DHT22;6914;53.552;9.908;2023-03-31T02:11:07;9.80;99.90
13684;DHT22;6914;53.552;9.908;2023-03-31T02:13:34;11.60;99.90
13684;DHT22;6914;53.552;9.908;2023-03-31T02:16:05;10.10;99.90
13684;DHT22;6914;53.552;9.908;2023-03-31T02:18:35;10.00;99.90
13684;DHT22;6914;53.552;9.908;2023-03-31T02:21:06;10.00;99.90
13684;DHT22;6914;53.552;9.908;2023-03-31T02:23:36;10.10;99.90
13684;DHT22;6914;53.552;9.908;2023-03-31T02:26:07;10.00;99.90
13684;DHT22;6914;53.552;9.908;2023-03-31T02:28:36;9.90;99.90
13684;DHT22;6914;53.552;9.908;2023-03-31T02:31:10;9.80;99.90
13684;DHT22;6914;53.552;9.908;2023-03-31T02:33:41;9.90;99.90
13684;DHT22;6914;53.552;9.908;2023-03-31T02:36:08;9.90;99.90
13684;DHT22;6914;53.552;9.908;2023-03-31T02:38:36;9.90;99.90
13684;DHT22;6914;53.552;9.908;2023-03-31T02:41:05;9.90;99.90
13684;DHT22;6914;53.552;9.908;2023-03-31T02:43:33;9.80;99.90
13684;DHT22;6914;53.552;9.908;2023-03-31T02:46:01;10.20;99.90
13684;DHT22;6914;53.552;9.908;2023-03-31T02:48:30;9.80;99.90
13684;DHT22;6914;53.552;9.908;2023-03-31T02:51:21;9.70;99.90
13684;DHT22;6914;53.552;9.908;2023-03-31T02:54:10;9.80;99.90
13684;DHT22;6914;53.552;9.908;2023-03-31T02:56:57;9.80;99.90
13684;DHT22;6914;53.552;9.908;2023-03-31T02:59:40;9.70;99.90
13684;DHT22;6914;53.552;9.908;2023-03-31T03:02:17;9.20;99.90
13684;DHT22;6914;53.552;9.908;2023-03-31T03:05:07;9.50;99.90
13684;DHT22;6914;53.552;9.908;2023-03-31T03:07:45;9.80;99.90
13684;DHT22;6914;53.552;9.908;2023-03-31T03:10:18;10.10;99.90
13684;DHT22;6914;53.552;9.908;2023-03-31T03:12:52;9.70;99.90
13684;DHT22;6914;53.552;9.908;2023-03-31T03:15:30;10.10;99.90
13684;DHT22;6914;53.552;9.908;2023-03-31T03:17:58;9.80;99.90
13684;DHT22;6914;53.552;9.908;2023-03-31T03:20:26;8.30;99.90
13684;DHT22;6914;53.552;9.908;2023-03-31T03:22:53;9.80;99.90
13684;DHT22;6914;53.552;9.908;2023-03-31T03:25:20;9.00;99.90
13684;DHT22;6914;53.552;9.908;2023-03-31T03:27:50;9.70;99.90
13684;DHT22;6914;53.552;9.908;2023-03-31T03:30:17;9.70;99.90
13684;DHT22;6914;53.552;9.908;2023-03-31T03:32:46;9.70;99.90
13684;DHT22;6914;53.552;9.908;2023-03-31T03:35:14;9.60;99.90
13684;DHT22;6914;53.552;9.908;2023-03-31T03:37:40;9.70;99.90
13684;DHT22;6914;53.552;9.908;2023-03-31T03:40:08;10.20;99.90
13684;DHT22;6914;53.552;9.908;2023-03-31T03:42:35;9.70;99.90
13684;DHT22;6914;53.552;9.908;2023-03-31T03:45:03;10.50;99.90
13684;DHT22;6914;53.552;9.908;2023-03-31T03:47:30;9.70;99.90
13684;DHT22;6914;53.552;9.908;2023-03-31T03:49:59;9.60;99.90
13684;DHT22;6914;53.552;9.908;2023-03-31T03:52:25;9.50;99.90
13684;DHT22;6914;53.552;9.908;2023-03-31T03:54:52;9.60;99.90
13684;DHT22;6914;53.552;9.908;2023-03-31T03:57:19;9.70;99.90
13684;DHT22;6914;53.552;9.908;2023-03-31T03:59:47;9.60;99.90
13684;DHT22;6914;53.552;9.908;2023-03-31T04:02:14;9.80;99.90
13684;DHT22;6914;53.552;9.908;2023-03-31T04:04:41;10.20;99.90
13684;DHT22;6914;53.552;9.908;2023-03-31T04:07:10;9.50;99.90
13684;DHT22;6914;53.552;9.908;2023-03-31T04:09:37;9.80;99.90
13684;DHT22;6914;53.552;9.908;2023-03-31T04:12:04;9.80;99.90
13684;DHT22;6914;53.552;9.908;2023-03-31T04:14:31;9.80;99.90
13684;DHT22;6914;53.552;9.908;2023-03-31T04:16:57;9.30;99.90
13684;DHT22;6914;53.552;9.908;2023-03-31T04:19:29;9.90;99.90
13684;DHT22;6914;53.552;9.908;2023-03-31T04:21:56;9.90;99.90
13684;DHT22;6914;53.552;9.908;2023-03-31T04:24:28;9.70;99.90
13684;DHT22;6914;53.552;9.908;2023-03-31T04:26:57;9.80;99.90
13684;DHT22;6914;53.552;9.908;2023-03-31T04:29:26;9.70;99.90
13684;DHT22;6914;53.552;9.908;2023-03-31T04:31:53;10.60;99.90
13684;DHT22;6914;53.552;9.908;2023-03-31T04:34:25;9.80;99.90
13684;DHT22;6914;53.552;9.908;2023-03-31T04:36:59;10.10;99.90
13684;DHT22;6914;53.552;9.908;2023-03-31T04:39:29;9.80;99.90
13684;DHT22;6914;53.552;9.908;2023-03-31T04:41:56;9.70;99.90
13684;DHT22;6914;53.552;9.908;2023-03-31T04:44:25;9.90;99.90
13684;DHT22;6914;53.552;9.908;2023-03-31T04:46:53;9.90;99.90
13684;DHT22;6914;53.552;9.908;2023-03-31T04:49:27;10.90;99.90
13684;DHT22;6914;53.552;9.908;2023-03-31T04:51:53;9.90;99.90
13684;DHT22;6914;53.552;9.908;2023-03-31T04:54:20;10.00;99.90
13684;DHT22;6914;53.552;9.908;2023-03-31T04:56:48;10.90;99.90
13684;DHT22;6914;53.552;9.908;2023-03-31T04:59:15;10.00;99.90
13684;DHT22;6914;53.552;9.908;2023-03-31T05:01:42;9.90;99.90
13684;DHT22;6914;53.552;9.908;2023-03-31T05:04:10;9.60;99.90
13684;DHT22;6914;53.552;9.908;2023-03-31T05:06:37;10.00;99.90
13684;DHT22;6914;53.552;9.908;2023-03-31T05:09:04;10.00;99.90
13684;DHT22;6914;53.552;9.908;2023-03-31T05:11:31;10.00;99.90
13684;DHT22;6914;53.552;9.908;2023-03-31T05:13:59;10.00;99.90
13684;DHT22;6914;53.552;9.908;2023-03-31T05:16:27;10.00;99.90
13684;DHT22;6914;53.552;9.908;2023-03-31T05:18:54;10.10;99.90
13684;DHT22;6914;53.552;9.908;2023-03-31T05:21:21;10.10;99.90
13684;DHT22;6914;53.552;9.908;2023-03-31T05:23:48;10.10;99.90
13684;DHT22;6914;53.552;9.908;2023-03-31T05:26:15;9.80;99.90
13684;DHT22;6914;53.552;9.908;2023-03-31T05:28:42;9.80;99.90
13684;DHT22;6914;53.552;9.908;2023-03-31T05:31:11;9.80;99.90
13684;DHT22;6914;53.552;9.908;2023-03-31T05:33:38;10.10;99.90
13684;DHT22;6914;53.552;9.908;2023-03-31T05:36:07;10.10;99.90
13684;DHT22;6914;53.552;9.908;2023-03-31T05:38:34;10.10;99.90
13684;DHT22;6914;53.552;9.908;2023-03-31T05:41:01;10.10;99.90
13684;DHT22;6914;53.552;9.908;2023-03-31T05:43:28;8.20;99.90
13684;DHT22;6914;53.552;9.908;2023-03-31T05:45:55;10.10;99.90
13684;DHT22;6914;53.552;9.908;2023-03-31T05:48:24;9.70;99.90
13684;DHT22;6914;53.552;9.908;2023-03-31T05:50:55;10.60;99.90
13684;DHT22;6914;53.552;9.908;2023-03-31T05:53:24;10.00;99.90
13684;DHT22;6914;53.552;9.908;2023-03-31T05:55:56;10.00;99.90
13684;DHT22;6914;53.552;9.908;2023-03-31T05:58:23;9.80;99.90
13684;DHT22;6914;53.552;9.908;2023-03-31T06:01:00;10.20;99.90
13684;DHT22;6914;53.552;9.908;2023-03-31T06:03:29;9.80;99.90
13684;DHT22;6914;53.552;9.908;2023-03-31T06:05:56;10.00;99.90
13684;DHT22;6914;53.552;9.908;2023-03-31T06:08:23;10.20;99.90
13684;DHT22;6914;53.552;9.908;2023-03-31T06:10:50;10.20;99.90
13684;DHT22;6914;53.552;9.908;2023-03-31T06:13:17;11.30;99.90
13684;DHT22;6914;53.552;9.908;2023-03-31T06:15:52;10.20;99.90
13684;DHT22;6914;53.552;9.908;2023-03-31T06:18:19;10.10;99.90
13684;DHT22;6914;53.552;9.908;2023-03-31T06:20:47;10.40;99.90
13684;DHT22;6914;53.552;9.908;2023-03-31T06:23:14;10.50;99.90
13684;DHT22;6914;53.552;9.908;2023-03-31T06:25:41;9.70;99.90
13684;DHT22;6914;53.552;9.908;2023-03-31T06:28:08;10.50;99.90
13684;DHT22;6914;53.552;9.908;2023-03-31T06:30:35;11.00;99.90
13684;DHT22;6914;53.552;9.908;2023-03-31T06:33:02;10.30;99.90
13684;DHT22;6914;53.552;9.908;2023-03-31T06:35:29;10.50;99.90
13684;DHT22;6914;53.552;9.908;2023-03-31T06:37:58;10.50;99.90
13684;DHT22;6914;53.552;9.908;2023-03-31T06:40:28;10.50;99.90
13684;DHT22;6914;53.552;9.908;2023-03-31T06:42:55;10.30;99.90
13684;DHT22;6914;53.552;9.908;2023-03-31T06:45:22;10.60;99.90
13684;DHT22;6914;53.552;9.908;2023-03-31T06:47:49;10.80;99.90
13684;DHT22;6914;53.552;9.908;2023-03-31T06:50:16;11.10;99.90
13684;DHT22;6914;53.552;9.908;2023-03-31T06:52:43;10.70;99.90
13684;DHT22;6914;53.552;9.908;2023-03-31T06:55:12;10.40;99.90
13684;DHT22;6914;53.552;9.908;2023-03-31T06:57:40;10.80;99.90
13684;DHT22;6914;53.552;9.908;2023-03-31T07:00:08;10.80;99.90
13684;DHT22;6914;53.552;9.908;2023-03-31T07:02:35;10.80;99.90
13684;DHT22;6914;53.552;9.908;2023-03-31T07:05:02;11.10;99.90
13684;DHT22;6914;53.552;9.908;2023-03-31T07:07:30;10.90;99.90
13684;DHT22;6914;53.552;9.908;2023-03-31T07:09:57;10.70;99.90
13684;DHT22;6914;53.552;9.908;2023-03-31T07:12:26;9.70;99.90
13684;DHT22;6914;53.552;9.908;2023-03-31T07:14:54;10.70;99.90
13684;DHT22;6914;53.552;9.908;2023-03-31T07:17:21;10.50;99.90
13684;DHT22;6914;53.552;9.908;2023-03-31T07:19:49;11.10;99.90
13684;DHT22;6914;53.552;9.908;2023-03-31T07:22:16;10.80;99.90
13684;DHT22;6914;53.552;9.908;2023-03-31T07:24:43;11.10;99.90
13684;DHT22;6914;53.552;9.908;2023-03-31T07:27:10;10.70;99.90
13684;DHT22;6914;53.552;9.908;2023-03-31T07:29:38;11.00;99.90
13684;DHT22;6914;53.552;9.908;2023-03-31T07:32:05;11.20;99.90
13684;DHT22;6914;53.552;9.908;2023-03-31T07:34:32;11.10;99.90
13684;DHT22;6914;53.552;9.908;2023-03-31T07:36:59;10.90;99.90
13684;DHT22;6914;53.552;9.908;2023-03-31T07:39:28;10.80;99.90
13684;DHT22;6914;53.552;9.908;2023-03-31T07:41:55;11.30;99.90
13684;DHT22;6914;53.552;9.908;2023-03-31T07:44:22;10.60;99.90
13684;DHT22;6914;53.552;9.908;2023-03-31T07:46:51;11.00;99.90
13684;DHT22;6914;53.552;9.908;2023-03-31T07:49:18;10.90;99.90
13684;DHT22;6914;53.552;9.908;2023-03-31T07:51:45;10.70;99.90
13684;DHT22;6914;53.552;9.908;2023-03-31T07:54:12;10.70;99.90
13684;DHT22;6914;53.552;9.908;2023-03-31T07:56:39;10.70;99.90
13684;DHT22;6914;53.552;9.908;2023-03-31T07:59:06;11.00;99.90
13684;DHT22;6914;53.552;9.908;2023-03-31T08:01:33;11.10;99.90
13684;DHT22;6914;53.552;9.908;2023-03-31T08:04:01;10.50;99.90
13684;DHT22;6914;53.552;9.908;2023-03-31T08:06:28;10.50;99.90
13684;DHT22;6914;53.552;9.908;2023-03-31T08:08:56;10.30;99.90
13684;DHT22;6914;53.552;9.908;2023-03-31T08:11:25;10.30;99.90
13684;DHT22;6914;53.552;9.908;2023-03-31T08:13:54;10.60;99.90
13684;DHT22;6914;53.552;9.908;2023-03-31T08:16:21;10.40;99.90
13684;DHT22;6914;53.552;9.908;2023-03-31T08:18:49;10.30;99.90
13684;DHT22;6914;53.552;9.908;2023-03-31T08:21:18;10.40;99.90
13684;DHT22;6914;53.552;9.908;2023-03-31T08:23:44;10.30;99.90
13684;DHT22;6914;53.552;9.908;2023-03-31T08:26:13;9.80;99.90
13684;DHT22;6914;53.552;9.908;2023-03-31T08:28:42;11.00;99.90
13684;DHT22;6914;53.552;9.908;2023-03-31T08:31:10;10.50;99.90
13684;DHT22;6914;53.552;9.908;2023-03-31T08:33:37;10.30;99.90
13684;DHT22;6914;53.552;9.908;2023-03-31T08:36:06;10.50;99.90
13684;DHT22;6914;53.552;9.908;2023-03-31T08:38:36;10.60;99.90
13684;DHT22;6914;53.552;9.908;2023-03-31T08:41:10;10.30;99.90
13684;DHT22;6914;53.552;9.908;2023-03-31T08:43:44;10.20;99.90
13684;DHT22;6914;53.552;9.908;2023-03-31T08:46:14;10.50;99.90
13684;DHT22;6914;53.552;9.908;2023-03-31T08:48:45;9.40;99.90
13684;DHT22;6914;53.552;9.908;2023-03-31T08:51:16;10.30;99.90
13684;DHT22;6914;53.552;9.908;2023-03-31T08:53:50;10.30;99.90
13684;DHT22;6914;53.552;9.908;2023-03-31T08:56:21;10.20;99.90
13684;DHT22;6914;53.552;9.908;2023-03-31T08:58:49;10.20;99.90
13684;DHT22;6914;53.552;9.908;2023-03-31T09:01:26;10.60;99.90
13684;DHT22;6914;53.552;9.908;2023-03-31T09:04:10;10.20;99.90
13684;DHT22;6914;53.552;9.908;2023-03-31T09:09:19;10.20;99.90
13684;DHT22;6914;53.552;9.908;2023-03-31T09:11:56;10.20;99.90
13684;DHT22;6914;53.552;9.908;2023-03-31T09:14:29;10.30;99.90
13684;DHT22;6914;53.552;9.908;2023-03-31T09:17:05;10.30;99.90
13684;DHT22;6914;53.552;9.908;2023-03-31T09:19:38;10.20;99.90
13684;DHT22;6914;53.552;9.908;2023-03-31T09:22:12;10.40;99.90
13684;DHT22;6914;53.552;9.908;2023-03-31T09:24:50;10.30;99.90
13684;DHT22;6914;53.552;9.908;2023-03-31T09:27:19;10.30;99.90
13684;DHT22;6914;53.552;9.908;2023-03-31T09:29:49;10.30;99.90
13684;DHT22;6914;53.552;9.908;2023-03-31T09:32:19;10.50;99.90
13684;DHT22;6914;53.552;9.908;2023-03-31T09:34:51;10.50;99.90
13684;DHT22;6914;53.552;9.908;2023-03-31T09:37:19;10.80;99.90
13684;DHT22;6914;53.552;9.908;2023-03-31T09:39:47;9.80;99.90
13684;DHT22;6914;53.552;9.908;2023-03-31T09:42:14;10.60;99.90
13684;DHT22;6914;53.552;9.908;2023-03-31T09:44:44;11.00;99.90
13684;DHT22;6914;53.552;9.908;2023-03-31T09:47:18;10.60;99.90
13684;DHT22;6914;53.552;9.908;2023-03-31T09:49:46;10.70;99.90
13684;DHT22;6914;53.552;9.908;2023-03-31T09:52:21;10.70;99.90
13684;DHT22;6914;53.552;9.908;2023-03-31T09:54:53;10.60;99.90
13684;DHT22;6914;53.552;9.908;2023-03-31T09:57:26;10.70;99.90
13684;DHT22;6914;53.552;9.908;2023-03-31T10:00:02;10.70;99.90
13684;DHT22;6914;53.552;9.908;2023-03-31T10:02:36;10.50;99.90
13684;DHT22;6914;53.552;9.908;2023-03-31T10:05:07;10.60;99.90
13684;DHT22;6914;53.552;9.908;2023-03-31T10:07:44;10.60;99.90
13684;DHT22;6914;53.552;9.908;2023-03-31T10:10:30;10.60;99.90
13684;DHT22;6914;53.552;9.908;2023-03-31T10:12:59;12.10;99.90
13684;DHT22;6914;53.552;9.908;2023-03-31T10:15:27;10.70;99.90
13684;DHT22;6914;53.552;9.908;2023-03-31T10:17:57;10.70;99.90
13684;DHT22;6914;53.552;9.908;2023-03-31T10:20:33;11.00;99.90
13684;DHT22;6914;53.552;9.908;2023-03-31T10:23:04;11.30;99.90
13684;DHT22;6914;53.552;9.908;2023-03-31T10:25:41;10.60;99.90
13684;DHT22;6914;53.552;9.908;2023-03-31T10:28:11;10.70;99.90
13684;DHT22;6914;53.552;9.908;2023-03-31T10:30:38;10.70;99.90
13684;DHT22;6914;53.552;9.908;2023-03-31T10:33:12;10.80;99.90
13684;DHT22;6914;53.552;9.908;2023-03-31T10:35:40;10.30;99.90
13684;DHT22;6914;53.552;9.908;2023-03-31T10:38:10;10.60;99.90
13684;DHT22;6914;53.552;9.908;2023-03-31T10:40:42;10.80;99.90
13684;DHT22;6914;53.552;9.908;2023-03-31T10:43:17;10.80;99.90
13684;DHT22;6914;53.552;9.908;2023-03-31T10:45:47;10.80;99.90
13684;DHT22;6914;53.552;9.908;2023-03-31T10:48:19;11.00;99.90
13684;DHT22;6914;53.552;9.908;2023-03-31T10:50:49;11.00;99.90
13684;DHT22;6914;53.552;9.908;2023-03-31T10:53:16;10.90;99.90
13684;DHT22;6914;53.552;9.908;2023-03-31T10:56:04;10.90;99.90
13684;DHT22;6914;53.552;9.908;2023-03-31T10:58:42;10.90;99.90
13684;DHT22;6914;53.552;9.908;2023-03-31T11:01:24;10.90;99.90
13684;DHT22;6914;53.552;9.908;2023-03-31T11:04:04;11.00;99.90
13684;DHT22;6914;53.552;9.908;2023-03-31T11:06:45;11.00;99.90
13684;DHT22;6914;53.552;9.908;2023-03-31T11:09:34;11.00;99.90
13684;DHT22;6914;53.552;9.908;2023-03-31T11:12:13;9.20;99.90
13684;DHT22;6914;53.552;9.908;2023-03-31T11:14:53;11.20;99.90
13684;DHT22;6914;53.552;9.908;2023-03-31T11:17:32;11.00;99.90
13684;DHT22;6914;53.552;9.908;2023-03-31T11:20:10;11.10;99.90
13684;DHT22;6914;53.552;9.908;2023-03-31T11:25:31;11.10;99.90
13684;DHT22;6914;53.552;9.908;2023-03-31T11:28:20;11.20;99.90
13684;DHT22;6914;53.552;9.908;2023-03-31T11:30:51;11.30;99.90
13684;DHT22;6914;53.552;9.908;2023-03-31T11:33:53;11.10;99.90
13684;DHT22;6914;53.552;9.908;2023-03-31T11:36:41;12.10;99.90
13684;DHT22;6914;53.552;9.908;2023-03-31T11:39:24;10.90;99.90
13684;DHT22;6914;53.552;9.908;2023-03-31T11:41:56;10.80;99.90
13684;DHT22;6914;53.552;9.908;2023-03-31T11:44:29;10.80;99.90
13684;DHT22;6914;53.552;9.908;2023-03-31T11:47:03;10.50;99.90
13684;DHT22;6914;53.552;9.908;2023-03-31T11:49:33;10.50;99.90
13684;DHT22;6914;53.552;9.908;2023-03-31T11:52:06;10.50;99.90
13684;DHT22;6914;53.552;9.908;2023-03-31T11:54:38;10.40;99.90
13684;DHT22;6914;53.552;9.908;2023-03-31T11:57:11;9.50;99.90
13684;DHT22;6914;53.552;9.908;2023-03-31T11:59:41;10.30;99.90
13684;DHT22;6914;53.552;9.908;2023-03-31T12:02:14;10.40;99.90
13684;DHT22;6914;53.552;9.908;2023-03-31T12:04:44;10.40;99.90
13684;DHT22;6914;53.552;9.908;2023-03-31T12:07:21;10.50;99.90
13684;DHT22;6914;53.552;9.908;2023-03-31T12:09:54;10.40;99.90
13684;DHT22;6914;53.552;9.908;2023-03-31T12:12:29;10.40;99.90
13684;DHT22;6914;53.552;9.908;2023-03-31T12:15:05;10.30;99.90
13684;DHT22;6914;53.552;9.908;2023-03-31T12:17:37;10.50;99.90
13684;DHT22;6914;53.552;9.908;2023-03-31T12:20:12;10.50;99.90
13684;DHT22;6914;53.552;9.908;2023-03-31T12:22:42;10.40;99.90
13684;DHT22;6914;53.552;9.908;2023-03-31T12:25:11;10.40;99.90
13684;DHT22;6914;53.552;9.908;2023-03-31T12:27:40;10.50;99.90
13684;DHT22;6914;53.552;9.908;2023-03-31T12:30:12;10.80;99.90
13684;DHT22;6914;53.552;9.908;2023-03-31T12:32:45;10.50;99.90
13684;DHT22;6914;53.552;9.908;2023-03-31T12:35:19;10.50;99.90
13684;DHT22;6914;53.552;9.908;2023-03-31T12:38:07;10.70;99.90
13684;DHT22;6914;53.552;9.908;2023-03-31T12:40:45;10.50;99.90
13684;DHT22;6914;53.552;9.908;2023-03-31T12:43:29;10.50;99.90
13684;DHT22;6914;53.552;9.908;2023-03-31T12:46:12;10.50;99.90
13684;DHT22;6914;53.552;9.908;2023-03-31T12:48:53;10.30;99.90
13684;DHT22;6914;53.552;9.908;2023-03-31T12:51:50;10.60;99.90
13684;DHT22;6914;53.552;9.908;2023-03-31T12:54:38;10.60;99.90
13684;DHT22;6914;53.552;9.908;2023-03-31T12:57:15;10.70;99.90
13684;DHT22;6914;53.552;9.908;2023-03-31T12:59:45;10.70;99.90
13684;DHT22;6914;53.552;9.908;2023-03-31T13:02:24;10.30;99.90
13684;DHT22;6914;53.552;9.908;2023-03-31T13:04:52;10.90;99.90
13684;DHT22;6914;53.552;9.908;2023-03-31T13:07:39;10.90;99.90
13684;DHT22;6914;53.552;9.908;2023-03-31T13:10:25;11.20;99.90
13684;DHT22;6914;53.552;9.908;2023-03-31T13:13:04;10.30;99.90
13684;DHT22;6914;53.552;9.908;2023-03-31T13:15:32;11.40;99.90
13684;DHT22;6914;53.552;9.908;2023-03-31T13:18:02;11.40;99.90
13684;DHT22;6914;53.552;9.908;2023-03-31T13:20:33;11.50;99.90
13684;DHT22;6914;53.552;9.908;2023-03-31T13:23:14;11.50;99.90
13684;DHT22;6914;53.552;9.908;2023-03-31T13:25:46;11.50;99.90
13684;DHT22;6914;53.552;9.908;2023-03-31T13:28:25;11.60;99.90
13684;DHT22;6914;53.552;9.908;2023-03-31T13:30:56;11.50;99.90
13684;DHT22;6914;53.552;9.908;2023-03-31T13:33:39;11.20;99.90
13684;DHT22;6914;53.552;9.908;2023-03-31T13:36:18;11.40;99.90
13684;DHT22;6914;53.552;9.908;2023-03-31T13:39:02;10.60;99.90
13684;DHT22;6914;53.552;9.908;2023-03-31T13:41:42;11.50;99.90
13684;DHT22;6914;53.552;9.908;2023-03-31T13:47:36;11.60;99.90
13684;DHT22;6914;53.552;9.908;2023-03-31T13:50:35;11.90;99.90
13684;DHT22;6914;53.552;9.908;2023-03-31T13:53:19;11.50;99.90
13684;DHT22;6914;53.552;9.908;2023-03-31T13:56:03;11.50;99.90
13684;DHT22;6914;53.552;9.908;2023-03-31T13:58:52;12.10;99.90
13684;DHT22;6914;53.552;9.908;2023-03-31T14:01:55;12.30;99.90
13684;DHT22;6914;53.552;9.908;2023-03-31T14:04:52;12.40;99.90
13684;DHT22;6914;53.552;9.908;2023-03-31T14:07:29;12.20;99.90
13684;DHT22;6914;53.552;9.908;2023-03-31T14:10:00;12.70;99.90
13684;DHT22;6914;53.552;9.908;2023-03-31T14:12:31;12.10;99.90
13684;DHT22;6914;53.552;9.908;2023-03-31T14:15:02;11.90;99.90
13684;DHT22;6914;53.552;9.908;2023-03-31T14:17:32;12.50;99.90
13684;DHT22;6914;53.552;9.908;2023-03-31T14:20:19;12.20;99.90
13684;DHT22;6914;53.552;9.908;2023-03-31T14:22:56;12.40;99.90
13684;DHT22;6914;53.552;9.908;2023-03-31T14:25:38;12.60;99.90
13684;DHT22;6914;53.552;9.908;2023-03-31T14:28:19;12.20;99.90
13684;DHT22;6914;53.552;9.908;2023-03-31T14:30:54;12.10;99.90
13684;DHT22;6914;53.552;9.908;2023-03-31T14:33:34;12.10;99.90
13684;DHT22;6914;53.552;9.908;2023-03-31T14:36:10;12.20;99.90
13684;DHT22;6914;53.552;9.908;2023-03-31T14:38:42;12.20;99.90
13684;DHT22;6914;53.552;9.908;2023-03-31T14:41:16;12.30;99.90
13684;DHT22;6914;53.552;9.908;2023-03-31T14:43:47;13.00;99.90
13684;DHT22;6914;53.552;9.908;2023-03-31T14:46:18;12.70;99.90
13684;DHT22;6914;53.552;9.908;2023-03-31T14:48:47;12.90;99.90
13684;DHT22;6914;53.552;9.908;2023-03-31T14:51:16;13.10;99.90
13684;DHT22;6914;53.552;9.908;2023-03-31T14:53:44;13.10;99.90
13684;DHT22;6914;53.552;9.908;2023-03-31T14:56:14;13.90;99.90
13684;DHT22;6914;53.552;9.908;2023-03-31T14:58:44;12.60;99.90
13684;DHT22;6914;53.552;9.908;2023-03-31T15:01:16;12.80;99.90
13684;DHT22;6914;53.552;9.908;2023-03-31T15:03:44;12.10;99.90
13684;DHT22;6914;53.552;9.908;2023-03-31T15:06:13;11.90;99.90
13684;DHT22;6914;53.552;9.908;2023-03-31T15:08:44;12.30;99.90
13684;DHT22;6914;53.552;9.908;2023-03-31T15:11:14;12.30;99.90
13684;DHT22;6914;53.552;9.908;2023-03-31T15:13:51;12.20;99.90
13684;DHT22;6914;53.552;9.908;2023-03-31T15:18:48;12.10;99.90
13684;DHT22;6914;53.552;9.908;2023-03-31T15:21:27;12.10;99.90
13684;DHT22;6914;53.552;9.908;2023-03-31T15:24:16;12.10;99.90
13684;DHT22;6914;53.552;9.908;2023-03-31T15:26:56;12.00;99.90
13684;DHT22;6914;53.552;9.908;2023-03-31T15:29:27;12.00;99.90
13684;DHT22;6914;53.552;9.908;2023-03-31T15:31:56;11.90;99.90
13684;DHT22;6914;53.552;9.908;2023-03-31T15:34:26;12.00;99.90
13684;DHT22;6914;53.552;9.908;2023-03-31T15:36:59;12.00;99.90
13684;DHT22;6914;53.552;9.908;2023-03-31T15:39:31;12.00;99.90
13684;DHT22;6914;53.552;9.908;2023-03-31T15:42:03;15.00;99.90
13684;DHT22;6914;53.552;9.908;2023-03-31T15:44:43;11.00;99.90
13684;DHT22;6914;53.552;9.908;2023-03-31T15:47:18;12.00;99.90
13684;DHT22;6914;53.552;9.908;2023-03-31T15:49:51;12.00;99.90
13684;DHT22;6914;53.552;9.908;2023-03-31T15:52:26;11.90;99.90
13684;DHT22;6914;53.552;9.908;2023-03-31T15:54:58;12.00;99.90
13684;DHT22;6914;53.552;9.908;2023-03-31T15:57:34;14.30;99.90
13684;DHT22;6914;53.552;9.908;2023-03-31T16:00:05;12.10;99.90
13684;DHT22;6914;53.552;9.908;2023-03-31T16:02:41;12.30;99.90
13684;DHT22;6914;53.552;9.908;2023-03-31T16:05:28;12.20;99.90
13684;DHT22;6914;53.552;9.908;2023-03-31T16:08:01;12.10;99.90
13684;DHT22;6914;53.552;9.908;2023-03-31T16:10:40;12.00;99.90
13684;DHT22;6914;53.552;9.908;2023-03-31T16:13:10;12.00;99.90
13684;DHT22;6914;53.552;9.908;2023-03-31T16:15:41;11.90;99.90
13684;DHT22;6914;53.552;9.908;2023-03-31T16:18:13;11.80;99.90
13684;DHT22;6914;53.552;9.908;2023-03-31T16:20:43;11.50;99.90
13684;DHT22;6914;53.552;9.908;2023-03-31T16:23:14;11.60;99.90
13684;DHT22;6914;53.552;9.908;2023-03-31T16:25:46;11.60;99.90
13684;DHT22;6914;53.552;9.908;2023-03-31T16:28:17;11.50;99.90
13684;DHT22;6914;53.552;9.908;2023-03-31T16:30:46;11.40;99.90
13684;DHT22;6914;53.552;9.908;2023-03-31T16:33:15;11.40;99.90
13684;DHT22;6914;53.552;9.908;2023-03-31T16:35:46;11.40;99.90
13684;DHT22;6914;53.552;9.908;2023-03-31T16:38:16;11.10;99.90
13684;DHT22;6914;53.552;9.908;2023-03-31T16:40:46;11.50;99.90
13684;DHT22;6914;53.552;9.908;2023-03-31T16:43:15;11.30;99.90